sensor_id;sensor_type;location;lat;lon;timestamp;P1;durP1;ratioP1;P2;durP2;ratioP2
3993;SDS011;2011;48.238;13.948;2022-12-07T00:01:24;48.00;;;19.70;;
3993;SDS011;2011;48.238;13.948;2022-12-07T00:03:52;51.33;;;20.67;;
3993;SDS011;2011;48.238;13.948;2022-12-07T00:06:23;53.03;;;20.53;;
3993;SDS011;2011;48.238;13.948;2022-12-07T00:08:50;52.77;;;20.53;;
3993;SDS011;2011;48.238;13.948;2022-12-07T00:11:18;45.10;;;21.27;;
3993;SDS011;2011;48.238;13.948;2022-12-07T00:13:50;41.97;;;20.00;;
3993;SDS011;2011;48.238;13.948;2022-12-07T00:16:19;52.35;;;20.65;;
3993;SDS011;2011;48.238;13.948;2022-12-07T00:18:47;49.87;;;19.93;;
3993;SDS011;2011;48.238;13.948;2022-12-07T00:21:15;42.53;;;19.50;;
3993;SDS011;2011;48.238;13.948;2022-12-07T00:23:46;44.67;;;19.10;;
3993;SDS011;2011;48.238;13.948;2022-12-07T00:26:14;42.03;;;19.30;;
3993;SDS011;2011;48.238;13.948;2022-12-07T00:28:44;46.03;;;19.40;;
3993;SDS011;2011;48.238;13.948;2022-12-07T00:31:12;47.67;;;19.40;;
3993;SDS011;2011;48.238;13.948;2022-12-07T00:33:39;40.37;;;18.40;;
3993;SDS011;2011;48.238;13.948;2022-12-07T00:36:07;52.50;;;20.93;;
3993;SDS011;2011;48.238;13.948;2022-12-07T00:38:36;45.70;;;19.67;;
3993;SDS011;2011;48.238;13.948;2022-12-07T00:41:06;45.43;;;18.23;;
3993;SDS011;2011;48.238;13.948;2022-12-07T00:43:35;48.70;;;20.63;;
3993;SDS011;2011;48.238;13.948;2022-12-07T00:46:02;42.13;;;18.90;;
3993;SDS011;2011;48.238;13.948;2022-12-07T00:48:29;44.80;;;20.60;;
3993;SDS011;2011;48.238;13.948;2022-12-07T00:50:56;39.67;;;19.63;;
3993;SDS011;2011;48.238;13.948;2022-12-07T00:53:24;44.67;;;18.40;;
3993;SDS011;2011;48.238;13.948;2022-12-07T00:55:51;40.30;;;18.57;;
3993;SDS011;2011;48.238;13.948;2022-12-07T00:58:20;49.63;;;20.27;;
3993;SDS011;2011;48.238;13.948;2022-12-07T01:00:47;38.77;;;18.53;;
3993;SDS011;2011;48.238;13.948;2022-12-07T01:03:14;44.50;;;18.53;;
3993;SDS011;2011;48.238;13.948;2022-12-07T01:05:48;39.17;;;18.20;;
3993;SDS011;2011;48.238;13.948;2022-12-07T01:08:17;41.63;;;19.50;;
3993;SDS011;2011;48.238;13.948;2022-12-07T01:10:43;50.38;;;20.75;;
3993;SDS011;2011;48.238;13.948;2022-12-07T01:13:10;42.20;;;16.83;;
3993;SDS011;2011;48.238;13.948;2022-12-07T01:15:40;32.50;;;15.17;;
3993;SDS011;2011;48.238;13.948;2022-12-07T01:18:08;42.23;;;17.27;;
3993;SDS011;2011;48.238;13.948;2022-12-07T01:20:35;34.97;;;17.30;;
3993;SDS011;2011;48.238;13.948;2022-12-07T01:23:02;33.47;;;15.33;;
3993;SDS011;2011;48.238;13.948;2022-12-07T01:25:29;26.63;;;14.48;;
3993;SDS011;2011;48.238;13.948;2022-12-07T01:27:56;27.13;;;14.60;;
3993;SDS011;2011;48.238;13.948;2022-12-07T01:30:23;23.63;;;12.40;;
3993;SDS011;2011;48.238;13.948;2022-12-07T01:32:51;27.53;;;13.10;;
3993;SDS011;2011;48.238;13.948;2022-12-07T01:35:18;29.77;;;13.57;;
3993;SDS011;2011;48.238;13.948;2022-12-07T01:37:45;28.63;;;13.23;;
3993;SDS011;2011;48.238;13.948;2022-12-07T01:40:12;21.10;;;12.18;;
3993;SDS011;2011;48.238;13.948;2022-12-07T01:42:39;24.73;;;12.80;;
3993;SDS011;2011;48.238;13.948;2022-12-07T01:45:34;23.97;;;13.20;;
3993;SDS011;2011;48.238;13.948;2022-12-07T01:48:06;19.20;;;11.83;;
3993;SDS011;2011;48.238;13.948;2022-12-07T01:50:36;26.27;;;13.70;;
3993;SDS011;2011;48.238;13.948;2022-12-07T01:53:05;21.23;;;13.07;;
3993;SDS011;2011;48.238;13.948;2022-12-07T01:55:34;26.33;;;14.33;;
3993;SDS011;2011;48.238;13.948;2022-12-07T01:58:06;22.10;;;13.63;;
3993;SDS011;2011;48.238;13.948;2022-12-07T02:00:34;23.07;;;13.20;;
3993;SDS011;2011;48.238;13.948;2022-12-07T02:03:03;26.07;;;14.23;;
3993;SDS011;2011;48.238;13.948;2022-12-07T02:05:33;28.60;;;13.73;;
3993;SDS011;2011;48.238;13.948;2022-12-07T02:08:03;25.90;;;14.30;;
3993;SDS011;2011;48.238;13.948;2022-12-07T02:10:31;25.13;;;13.77;;
3993;SDS011;2011;48.238;13.948;2022-12-07T02:12:58;26.67;;;14.30;;
3993;SDS011;2011;48.238;13.948;2022-12-07T02:15:33;21.80;;;12.20;;
3993;SDS011;2011;48.238;13.948;2022-12-07T02:18:07;29.80;;;13.00;;
3993;SDS011;2011;48.238;13.948;2022-12-07T02:20:41;21.55;;;11.93;;
3993;SDS011;2011;48.238;13.948;2022-12-07T02:23:28;18.97;;;11.10;;
3993;SDS011;2011;48.238;13.948;2022-12-07T02:29:11;15.40;;;10.00;;
3993;SDS011;2011;48.238;13.948;2022-12-07T02:31:44;17.40;;;8.63;;
3993;SDS011;2011;48.238;13.948;2022-12-07T02:34:19;20.23;;;9.53;;
3993;SDS011;2011;48.238;13.948;2022-12-07T02:36:54;14.13;;;8.40;;
3993;SDS011;2011;48.238;13.948;2022-12-07T02:39:27;15.90;;;9.80;;
3993;SDS011;2011;48.238;13.948;2022-12-07T02:41:58;14.60;;;8.50;;
3993;SDS011;2011;48.238;13.948;2022-12-07T02:44:31;12.47;;;7.70;;
3993;SDS011;2011;48.238;13.948;2022-12-07T02:47:00;11.90;;;8.30;;
3993;SDS011;2011;48.238;13.948;2022-12-07T02:49:31;12.00;;;8.17;;
3993;SDS011;2011;48.238;13.948;2022-12-07T02:51:58;12.57;;;7.93;;
3993;SDS011;2011;48.238;13.948;2022-12-07T02:54:25;11.70;;;7.90;;
3993;SDS011;2011;48.238;13.948;2022-12-07T02:56:52;14.82;;;8.65;;
3993;SDS011;2011;48.238;13.948;2022-12-07T02:59:28;14.33;;;8.77;;
3993;SDS011;2011;48.238;13.948;2022-12-07T03:02:08;15.97;;;8.73;;
3993;SDS011;2011;48.238;13.948;2022-12-07T03:04:45;12.67;;;8.60;;
3993;SDS011;2011;48.238;13.948;2022-12-07T03:07:21;22.33;;;8.27;;
3993;SDS011;2011;48.238;13.948;2022-12-07T03:09:57;15.38;;;8.85;;
3993;SDS011;2011;48.238;13.948;2022-12-07T03:12:29;13.57;;;8.80;;
3993;SDS011;2011;48.238;13.948;2022-12-07T03:15:05;14.90;;;9.63;;
3993;SDS011;2011;48.238;13.948;2022-12-07T03:17:37;15.13;;;9.23;;
3993;SDS011;2011;48.238;13.948;2022-12-07T03:20:09;13.63;;;9.80;;
3993;SDS011;2011;48.238;13.948;2022-12-07T03:22:39;13.77;;;8.53;;
3993;SDS011;2011;48.238;13.948;2022-12-07T03:25:10;13.30;;;8.90;;
3993;SDS011;2011;48.238;13.948;2022-12-07T03:27:42;12.93;;;8.50;;
3993;SDS011;2011;48.238;13.948;2022-12-07T03:30:18;15.43;;;9.33;;
3993;SDS011;2011;48.238;13.948;2022-12-07T03:32:48;12.37;;;7.93;;
3993;SDS011;2011;48.238;13.948;2022-12-07T03:35:20;17.50;;;8.17;;
3993;SDS011;2011;48.238;13.948;2022-12-07T03:37:51;14.17;;;8.80;;
3993;SDS011;2011;48.238;13.948;2022-12-07T03:40:22;14.95;;;8.93;;
3993;SDS011;2011;48.238;13.948;2022-12-07T03:42:52;21.20;;;8.43;;
3993;SDS011;2011;48.238;13.948;2022-12-07T03:45:23;13.10;;;8.03;;
3993;SDS011;2011;48.238;13.948;2022-12-07T03:47:59;13.23;;;8.67;;
3993;SDS011;2011;48.238;13.948;2022-12-07T03:50:35;14.90;;;8.70;;
3993;SDS011;2011;48.238;13.948;2022-12-07T03:53:09;14.40;;;9.00;;
3993;SDS011;2011;48.238;13.948;2022-12-07T03:55:41;14.33;;;8.60;;
3993;SDS011;2011;48.238;13.948;2022-12-07T03:58:12;12.77;;;8.50;;
3993;SDS011;2011;48.238;13.948;2022-12-07T04:00:43;14.20;;;8.67;;
3993;SDS011;2011;48.238;13.948;2022-12-07T04:03:11;13.50;;;8.83;;
3993;SDS011;2011;48.238;13.948;2022-12-07T04:05:38;11.90;;;7.93;;
3993;SDS011;2011;48.238;13.948;2022-12-07T04:08:05;13.53;;;9.00;;
3993;SDS011;2011;48.238;13.948;2022-12-07T04:10:32;11.87;;;8.07;;
3993;SDS011;2011;48.238;13.948;2022-12-07T04:12:59;12.77;;;8.50;;
3993;SDS011;2011;48.238;13.948;2022-12-07T04:15:26;14.17;;;8.17;;
3993;SDS011;2011;48.238;13.948;2022-12-07T04:17:54;12.77;;;8.60;;
3993;SDS011;2011;48.238;13.948;2022-12-07T04:20:21;13.00;;;8.87;;
3993;SDS011;2011;48.238;13.948;2022-12-07T04:22:49;12.77;;;8.50;;
3993;SDS011;2011;48.238;13.948;2022-12-07T04:25:16;14.93;;;9.40;;
3993;SDS011;2011;48.238;13.948;2022-12-07T04:27:43;18.80;;;8.37;;
3993;SDS011;2011;48.238;13.948;2022-12-07T04:30:10;11.73;;;7.80;;
3993;SDS011;2011;48.238;13.948;2022-12-07T04:32:37;11.43;;;8.10;;
3993;SDS011;2011;48.238;13.948;2022-12-07T04:35:05;13.93;;;8.93;;
3993;SDS011;2011;48.238;13.948;2022-12-07T04:37:33;14.03;;;8.03;;
3993;SDS011;2011;48.238;13.948;2022-12-07T04:40:00;13.45;;;8.32;;
3993;SDS011;2011;48.238;13.948;2022-12-07T04:42:27;20.60;;;8.83;;
3993;SDS011;2011;48.238;13.948;2022-12-07T04:44:54;14.10;;;9.50;;
3993;SDS011;2011;48.238;13.948;2022-12-07T04:47:20;14.93;;;8.03;;
3993;SDS011;2011;48.238;13.948;2022-12-07T04:49:47;13.47;;;8.10;;
3993;SDS011;2011;48.238;13.948;2022-12-07T04:52:16;16.90;;;8.63;;
3993;SDS011;2011;48.238;13.948;2022-12-07T04:54:42;13.23;;;8.90;;
3993;SDS011;2011;48.238;13.948;2022-12-07T04:57:09;11.00;;;8.00;;
3993;SDS011;2011;48.238;13.948;2022-12-07T04:59:36;13.52;;;8.52;;
3993;SDS011;2011;48.238;13.948;2022-12-07T05:02:03;13.57;;;9.60;;
3993;SDS011;2011;48.238;13.948;2022-12-07T05:04:30;15.93;;;9.57;;
3993;SDS011;2011;48.238;13.948;2022-12-07T05:06:57;14.75;;;9.70;;
3993;SDS011;2011;48.238;13.948;2022-12-07T05:09:25;13.43;;;9.03;;
3993;SDS011;2011;48.238;13.948;2022-12-07T05:11:52;15.03;;;9.80;;
3993;SDS011;2011;48.238;13.948;2022-12-07T05:14:19;13.83;;;9.93;;
3993;SDS011;2011;48.238;13.948;2022-12-07T05:16:47;31.13;;;10.63;;
3993;SDS011;2011;48.238;13.948;2022-12-07T05:19:15;15.27;;;10.40;;
3993;SDS011;2011;48.238;13.948;2022-12-07T05:21:43;17.93;;;11.30;;
3993;SDS011;2011;48.238;13.948;2022-12-07T05:24:11;17.97;;;11.60;;
3993;SDS011;2011;48.238;13.948;2022-12-07T05:26:41;33.23;;;17.37;;
3993;SDS011;2011;48.238;13.948;2022-12-07T05:29:10;18.43;;;12.23;;
3993;SDS011;2011;48.238;13.948;2022-12-07T05:31:38;17.17;;;10.90;;
3993;SDS011;2011;48.238;13.948;2022-12-07T05:34:05;17.98;;;11.77;;
3993;SDS011;2011;48.238;13.948;2022-12-07T05:36:32;18.03;;;11.50;;
3993;SDS011;2011;48.238;13.948;2022-12-07T05:38:59;19.20;;;12.37;;
3993;SDS011;2011;48.238;13.948;2022-12-07T05:41:26;18.47;;;12.57;;
3993;SDS011;2011;48.238;13.948;2022-12-07T05:44:11;19.73;;;11.80;;
3993;SDS011;2011;48.238;13.948;2022-12-07T05:46:38;22.73;;;13.13;;
3993;SDS011;2011;48.238;13.948;2022-12-07T05:49:05;21.03;;;12.53;;
3993;SDS011;2011;48.238;13.948;2022-12-07T05:51:32;18.93;;;12.30;;
3993;SDS011;2011;48.238;13.948;2022-12-07T05:53:59;22.13;;;11.77;;
3993;SDS011;2011;48.238;13.948;2022-12-07T05:56:26;18.90;;;11.70;;
3993;SDS011;2011;48.238;13.948;2022-12-07T05:58:53;22.17;;;12.52;;
3993;SDS011;2011;48.238;13.948;2022-12-07T06:01:38;17.60;;;12.10;;
3993;SDS011;2011;48.238;13.948;2022-12-07T06:04:05;19.10;;;12.20;;
3993;SDS011;2011;48.238;13.948;2022-12-07T06:06:32;17.00;;;10.77;;
3993;SDS011;2011;48.238;13.948;2022-12-07T06:08:59;17.57;;;11.30;;
3993;SDS011;2011;48.238;13.948;2022-12-07T06:11:27;21.23;;;11.50;;
3993;SDS011;2011;48.238;13.948;2022-12-07T06:14:11;15.80;;;10.17;;
3993;SDS011;2011;48.238;13.948;2022-12-07T06:16:39;16.73;;;11.10;;
3993;SDS011;2011;48.238;13.948;2022-12-07T06:19:06;20.20;;;10.77;;
3993;SDS011;2011;48.238;13.948;2022-12-07T06:21:33;18.80;;;11.07;;
3993;SDS011;2011;48.238;13.948;2022-12-07T06:24:00;16.43;;;10.50;;
3993;SDS011;2011;48.238;13.948;2022-12-07T06:26:27;16.00;;;9.60;;
3993;SDS011;2011;48.238;13.948;2022-12-07T06:28:54;19.40;;;11.00;;
3993;SDS011;2011;48.238;13.948;2022-12-07T06:31:21;14.47;;;9.07;;
3993;SDS011;2011;48.238;13.948;2022-12-07T06:33:49;13.50;;;8.93;;
3993;SDS011;2011;48.238;13.948;2022-12-07T06:36:16;14.87;;;9.50;;
3993;SDS011;2011;48.238;13.948;2022-12-07T06:38:43;15.40;;;9.00;;
3993;SDS011;2011;48.238;13.948;2022-12-07T06:41:10;13.37;;;8.57;;
3993;SDS011;2011;48.238;13.948;2022-12-07T06:43:37;12.60;;;8.40;;
3993;SDS011;2011;48.238;13.948;2022-12-07T06:46:04;18.23;;;9.47;;
3993;SDS011;2011;48.238;13.948;2022-12-07T06:48:31;13.70;;;9.10;;
3993;SDS011;2011;48.238;13.948;2022-12-07T06:51:00;15.77;;;9.60;;
3993;SDS011;2011;48.238;13.948;2022-12-07T06:53:27;11.57;;;8.13;;
3993;SDS011;2011;48.238;13.948;2022-12-07T06:55:53;14.93;;;8.80;;
3993;SDS011;2011;48.238;13.948;2022-12-07T06:58:20;14.20;;;9.48;;
3993;SDS011;2011;48.238;13.948;2022-12-07T07:00:47;16.50;;;9.97;;
3993;SDS011;2011;48.238;13.948;2022-12-07T07:03:15;15.23;;;8.50;;
3993;SDS011;2011;48.238;13.948;2022-12-07T07:05:42;18.57;;;9.07;;
3993;SDS011;2011;48.238;13.948;2022-12-07T07:08:11;14.70;;;9.30;;
3993;SDS011;2011;48.238;13.948;2022-12-07T07:10:38;13.43;;;9.20;;
3993;SDS011;2011;48.238;13.948;2022-12-07T07:13:06;14.67;;;9.70;;
3993;SDS011;2011;48.238;13.948;2022-12-07T07:15:33;12.35;;;8.30;;
3993;SDS011;2011;48.238;13.948;2022-12-07T07:18:01;15.90;;;9.83;;
3993;SDS011;2011;48.238;13.948;2022-12-07T07:20:28;15.53;;;9.90;;
3993;SDS011;2011;48.238;13.948;2022-12-07T07:22:55;14.23;;;9.30;;
3993;SDS011;2011;48.238;13.948;2022-12-07T07:25:24;14.63;;;8.87;;
3993;SDS011;2011;48.238;13.948;2022-12-07T07:27:51;12.17;;;8.80;;
3993;SDS011;2011;48.238;13.948;2022-12-07T07:30:17;13.70;;;8.23;;
3993;SDS011;2011;48.238;13.948;2022-12-07T07:32:44;13.93;;;8.73;;
3993;SDS011;2011;48.238;13.948;2022-12-07T07:35:11;13.93;;;9.03;;
3993;SDS011;2011;48.238;13.948;2022-12-07T07:37:39;15.27;;;9.02;;
3993;SDS011;2011;48.238;13.948;2022-12-07T07:40:06;13.80;;;8.57;;
3993;SDS011;2011;48.238;13.948;2022-12-07T07:42:35;16.37;;;9.43;;
3993;SDS011;2011;48.238;13.948;2022-12-07T07:45:02;14.50;;;9.23;;
3993;SDS011;2011;48.238;13.948;2022-12-07T07:47:30;15.55;;;10.13;;
3993;SDS011;2011;48.238;13.948;2022-12-07T07:49:57;14.23;;;9.50;;
3993;SDS011;2011;48.238;13.948;2022-12-07T07:52:24;17.60;;;9.73;;
3993;SDS011;2011;48.238;13.948;2022-12-07T07:54:50;14.93;;;9.90;;
3993;SDS011;2011;48.238;13.948;2022-12-07T07:57:17;13.77;;;8.70;;
3993;SDS011;2011;48.238;13.948;2022-12-07T07:59:46;15.13;;;9.10;;
3993;SDS011;2011;48.238;13.948;2022-12-07T08:02:13;15.53;;;9.73;;
3993;SDS011;2011;48.238;13.948;2022-12-07T08:04:41;18.95;;;10.48;;
3993;SDS011;2011;48.238;13.948;2022-12-07T08:07:08;27.23;;;11.00;;
3993;SDS011;2011;48.238;13.948;2022-12-07T08:09:36;17.73;;;10.10;;
3993;SDS011;2011;48.238;13.948;2022-12-07T08:12:03;15.23;;;9.73;;
3993;SDS011;2011;48.238;13.948;2022-12-07T08:14:31;13.30;;;9.60;;
3993;SDS011;2011;48.238;13.948;2022-12-07T08:16:59;12.90;;;8.70;;
3993;SDS011;2011;48.238;13.948;2022-12-07T08:19:26;17.80;;;10.13;;
3993;SDS011;2011;48.238;13.948;2022-12-07T08:21:53;15.57;;;9.80;;
3993;SDS011;2011;48.238;13.948;2022-12-07T08:24:21;15.83;;;9.87;;
3993;SDS011;2011;48.238;13.948;2022-12-07T08:26:48;13.70;;;9.07;;
3993;SDS011;2011;48.238;13.948;2022-12-07T08:29:15;15.33;;;9.37;;
3993;SDS011;2011;48.238;13.948;2022-12-07T08:31:42;15.03;;;9.27;;
3993;SDS011;2011;48.238;13.948;2022-12-07T08:34:11;15.63;;;10.00;;
3993;SDS011;2011;48.238;13.948;2022-12-07T08:36:38;16.30;;;10.03;;
3993;SDS011;2011;48.238;13.948;2022-12-07T08:39:05;14.80;;;9.33;;
3993;SDS011;2011;48.238;13.948;2022-12-07T08:41:32;17.07;;;10.40;;
3993;SDS011;2011;48.238;13.948;2022-12-07T08:44:00;15.17;;;10.10;;
3993;SDS011;2011;48.238;13.948;2022-12-07T08:46:28;14.40;;;9.40;;
3993;SDS011;2011;48.238;13.948;2022-12-07T08:49:02;14.70;;;9.40;;
3993;SDS011;2011;48.238;13.948;2022-12-07T08:51:32;14.27;;;9.35;;
3993;SDS011;2011;48.238;13.948;2022-12-07T08:54:00;16.40;;;10.20;;
3993;SDS011;2011;48.238;13.948;2022-12-07T08:56:30;16.53;;;9.47;;
3993;SDS011;2011;48.238;13.948;2022-12-07T08:58:57;14.70;;;9.30;;
3993;SDS011;2011;48.238;13.948;2022-12-07T09:01:24;13.70;;;9.67;;
3993;SDS011;2011;48.238;13.948;2022-12-07T09:03:52;14.60;;;9.43;;
3993;SDS011;2011;48.238;13.948;2022-12-07T09:06:18;19.33;;;10.93;;
3993;SDS011;2011;48.238;13.948;2022-12-07T09:08:47;15.67;;;9.97;;
3993;SDS011;2011;48.238;13.948;2022-12-07T09:11:18;16.83;;;10.50;;
3993;SDS011;2011;48.238;13.948;2022-12-07T09:13:45;16.50;;;10.63;;
3993;SDS011;2011;48.238;13.948;2022-12-07T09:16:13;16.60;;;10.00;;
3993;SDS011;2011;48.238;13.948;2022-12-07T09:18:39;16.33;;;10.27;;
3993;SDS011;2011;48.238;13.948;2022-12-07T09:21:06;17.17;;;10.57;;
3993;SDS011;2011;48.238;13.948;2022-12-07T09:23:34;15.43;;;10.07;;
3993;SDS011;2011;48.238;13.948;2022-12-07T09:26:02;17.60;;;10.93;;
3993;SDS011;2011;48.238;13.948;2022-12-07T09:28:30;15.77;;;10.23;;
3993;SDS011;2011;48.238;13.948;2022-12-07T09:30:57;16.00;;;10.93;;
3993;SDS011;2011;48.238;13.948;2022-12-07T09:33:24;17.10;;;10.70;;
3993;SDS011;2011;48.238;13.948;2022-12-07T09:35:52;15.17;;;9.90;;
3993;SDS011;2011;48.238;13.948;2022-12-07T09:38:19;16.10;;;10.23;;
3993;SDS011;2011;48.238;13.948;2022-12-07T09:40:46;15.50;;;10.00;;
3993;SDS011;2011;48.238;13.948;2022-12-07T09:43:16;14.87;;;9.87;;
3993;SDS011;2011;48.238;13.948;2022-12-07T09:45:45;15.53;;;10.50;;
3993;SDS011;2011;48.238;13.948;2022-12-07T09:48:15;17.42;;;10.52;;
3993;SDS011;2011;48.238;13.948;2022-12-07T09:50:45;13.77;;;9.70;;
3993;SDS011;2011;48.238;13.948;2022-12-07T09:53:14;17.67;;;10.80;;
3993;SDS011;2011;48.238;13.948;2022-12-07T09:55:46;19.63;;;10.23;;
3993;SDS011;2011;48.238;13.948;2022-12-07T09:58:16;17.10;;;11.30;;
3993;SDS011;2011;48.238;13.948;2022-12-07T10:00:47;14.13;;;9.87;;
3993;SDS011;2011;48.238;13.948;2022-12-07T10:03:15;17.10;;;10.57;;
3993;SDS011;2011;48.238;13.948;2022-12-07T10:05:43;18.40;;;11.90;;
3993;SDS011;2011;48.238;13.948;2022-12-07T10:08:12;18.10;;;10.90;;
3993;SDS011;2011;48.238;13.948;2022-12-07T10:10:40;17.83;;;10.97;;
3993;SDS011;2011;48.238;13.948;2022-12-07T10:13:08;16.43;;;10.00;;
3993;SDS011;2011;48.238;13.948;2022-12-07T10:15:48;16.80;;;9.80;;
3993;SDS011;2011;48.238;13.948;2022-12-07T10:18:19;15.13;;;9.73;;
3993;SDS011;2011;48.238;13.948;2022-12-07T10:20:59;16.37;;;10.00;;
3993;SDS011;2011;48.238;13.948;2022-12-07T10:23:32;14.50;;;9.83;;
3993;SDS011;2011;48.238;13.948;2022-12-07T10:26:01;17.87;;;10.77;;
3993;SDS011;2011;48.238;13.948;2022-12-07T10:28:46;16.30;;;9.13;;
3993;SDS011;2011;48.238;13.948;2022-12-07T10:31:16;15.60;;;9.57;;
3993;SDS011;2011;48.238;13.948;2022-12-07T10:33:48;14.35;;;9.55;;
3993;SDS011;2011;48.238;13.948;2022-12-07T10:36:18;16.07;;;10.17;;
3993;SDS011;2011;48.238;13.948;2022-12-07T10:38:48;13.82;;;9.40;;
3993;SDS011;2011;48.238;13.948;2022-12-07T10:41:17;14.60;;;10.27;;
3993;SDS011;2011;48.238;13.948;2022-12-07T10:43:51;15.57;;;10.23;;
3993;SDS011;2011;48.238;13.948;2022-12-07T10:49:31;15.40;;;10.07;;
3993;SDS011;2011;48.238;13.948;2022-12-07T10:52:15;13.40;;;8.93;;
3993;SDS011;2011;48.238;13.948;2022-12-07T10:54:55;14.53;;;8.87;;
3993;SDS011;2011;48.238;13.948;2022-12-07T10:57:35;14.80;;;9.70;;
3993;SDS011;2011;48.238;13.948;2022-12-07T11:00:18;16.17;;;9.97;;
3993;SDS011;2011;48.238;13.948;2022-12-07T11:03:00;13.83;;;9.33;;
3993;SDS011;2011;48.238;13.948;2022-12-07T11:05:53;15.27;;;9.33;;
3993;SDS011;2011;48.238;13.948;2022-12-07T11:08:33;17.30;;;10.80;;
3993;SDS011;2011;48.238;13.948;2022-12-07T11:11:12;15.10;;;9.80;;
3993;SDS011;2011;48.238;13.948;2022-12-07T11:13:44;19.60;;;10.17;;
3993;SDS011;2011;48.238;13.948;2022-12-07T11:16:21;15.83;;;10.07;;
3993;SDS011;2011;48.238;13.948;2022-12-07T11:18:59;49.43;;;20.80;;
3993;SDS011;2011;48.238;13.948;2022-12-07T11:21:42;17.73;;;10.70;;
3993;SDS011;2011;48.238;13.948;2022-12-07T11:24:18;17.20;;;10.87;;
3993;SDS011;2011;48.238;13.948;2022-12-07T11:26:55;17.10;;;9.83;;
3993;SDS011;2011;48.238;13.948;2022-12-07T11:29:41;15.43;;;10.00;;
3993;SDS011;2011;48.238;13.948;2022-12-07T11:32:17;15.63;;;9.90;;
3993;SDS011;2011;48.238;13.948;2022-12-07T11:34:55;11.90;;;8.33;;
3993;SDS011;2011;48.238;13.948;2022-12-07T11:37:34;16.07;;;10.20;;
3993;SDS011;2011;48.238;13.948;2022-12-07T11:40:03;14.23;;;9.80;;
3993;SDS011;2011;48.238;13.948;2022-12-07T11:42:33;13.90;;;8.40;;
3993;SDS011;2011;48.238;13.948;2022-12-07T11:45:10;14.60;;;9.20;;
3993;SDS011;2011;48.238;13.948;2022-12-07T11:47:43;11.60;;;8.55;;
3993;SDS011;2011;48.238;13.948;2022-12-07T11:50:27;12.50;;;8.83;;
3993;SDS011;2011;48.238;13.948;2022-12-07T11:53:01;13.20;;;8.03;;
3993;SDS011;2011;48.238;13.948;2022-12-07T11:55:36;15.20;;;8.97;;
3993;SDS011;2011;48.238;13.948;2022-12-07T11:58:14;14.17;;;9.43;;
3993;SDS011;2011;48.238;13.948;2022-12-07T12:00:49;16.57;;;10.33;;
3993;SDS011;2011;48.238;13.948;2022-12-07T12:03:20;15.17;;;9.57;;
3993;SDS011;2011;48.238;13.948;2022-12-07T12:05:55;14.50;;;9.20;;
3993;SDS011;2011;48.238;13.948;2022-12-07T12:08:25;14.37;;;9.90;;
3993;SDS011;2011;48.238;13.948;2022-12-07T12:10:59;15.77;;;10.10;;
3993;SDS011;2011;48.238;13.948;2022-12-07T12:13:44;19.03;;;10.43;;
3993;SDS011;2011;48.238;13.948;2022-12-07T12:16:39;18.90;;;10.37;;
3993;SDS011;2011;48.238;13.948;2022-12-07T12:19:32;16.57;;;10.13;;
3993;SDS011;2011;48.238;13.948;2022-12-07T12:22:04;19.47;;;10.70;;
3993;SDS011;2011;48.238;13.948;2022-12-07T12:24:38;16.07;;;9.47;;
3993;SDS011;2011;48.238;13.948;2022-12-07T12:27:07;16.03;;;9.90;;
3993;SDS011;2011;48.238;13.948;2022-12-07T12:29:41;17.80;;;10.83;;
3993;SDS011;2011;48.238;13.948;2022-12-07T12:32:13;17.40;;;11.00;;
3993;SDS011;2011;48.238;13.948;2022-12-07T12:34:58;21.42;;;11.23;;
3993;SDS011;2011;48.238;13.948;2022-12-07T12:37:41;21.23;;;10.27;;
3993;SDS011;2011;48.238;13.948;2022-12-07T12:58:49;19.23;;;10.60;;
3993;SDS011;2011;48.238;13.948;2022-12-07T13:01:38;17.90;;;10.90;;
3993;SDS011;2011;48.238;13.948;2022-12-07T13:04:17;17.80;;;9.87;;
3993;SDS011;2011;48.238;13.948;2022-12-07T13:07:12;19.13;;;9.57;;
3993;SDS011;2011;48.238;13.948;2022-12-07T13:09:59;17.07;;;9.63;;
3993;SDS011;2011;48.238;13.948;2022-12-07T13:12:30;13.80;;;7.95;;
3993;SDS011;2011;48.238;13.948;2022-12-07T13:14:58;16.13;;;9.30;;
3993;SDS011;2011;48.238;13.948;2022-12-07T13:20:44;15.83;;;9.53;;
3993;SDS011;2011;48.238;13.948;2022-12-07T13:23:13;14.03;;;8.93;;
3993;SDS011;2011;48.238;13.948;2022-12-07T13:26:00;12.83;;;8.17;;
3993;SDS011;2011;48.238;13.948;2022-12-07T13:28:40;11.63;;;7.90;;
3993;SDS011;2011;48.238;13.948;2022-12-07T13:31:11;15.90;;;9.60;;
3993;SDS011;2011;48.238;13.948;2022-12-07T13:33:43;17.50;;;10.67;;
3993;SDS011;2011;48.238;13.948;2022-12-07T13:36:14;18.10;;;10.83;;
3993;SDS011;2011;48.238;13.948;2022-12-07T13:38:49;17.10;;;9.60;;
3993;SDS011;2011;48.238;13.948;2022-12-07T13:41:19;19.30;;;8.90;;
3993;SDS011;2011;48.238;13.948;2022-12-07T13:43:51;19.20;;;9.07;;
3993;SDS011;2011;48.238;13.948;2022-12-07T13:46:23;16.30;;;10.07;;
3993;SDS011;2011;48.238;13.948;2022-12-07T13:48:54;15.90;;;9.97;;
3993;SDS011;2011;48.238;13.948;2022-12-07T13:51:22;16.07;;;9.77;;
3993;SDS011;2011;48.238;13.948;2022-12-07T13:53:52;21.23;;;10.53;;
3993;SDS011;2011;48.238;13.948;2022-12-07T13:56:21;18.83;;;11.27;;
3993;SDS011;2011;48.238;13.948;2022-12-07T13:58:51;17.77;;;10.33;;
3993;SDS011;2011;48.238;13.948;2022-12-07T14:01:18;16.10;;;9.30;;
3993;SDS011;2011;48.238;13.948;2022-12-07T14:03:46;15.70;;;9.93;;
3993;SDS011;2011;48.238;13.948;2022-12-07T14:06:14;16.43;;;10.60;;
3993;SDS011;2011;48.238;13.948;2022-12-07T14:08:47;16.52;;;8.70;;
3993;SDS011;2011;48.238;13.948;2022-12-07T14:11:15;15.90;;;9.57;;
3993;SDS011;2011;48.238;13.948;2022-12-07T14:13:58;18.97;;;9.60;;
3993;SDS011;2011;48.238;13.948;2022-12-07T14:16:27;17.43;;;10.50;;
3993;SDS011;2011;48.238;13.948;2022-12-07T14:18:55;16.57;;;10.40;;
3993;SDS011;2011;48.238;13.948;2022-12-07T14:21:24;17.03;;;10.00;;
3993;SDS011;2011;48.238;13.948;2022-12-07T14:24:12;17.30;;;9.97;;
3993;SDS011;2011;48.238;13.948;2022-12-07T14:26:43;19.33;;;11.23;;
3993;SDS011;2011;48.238;13.948;2022-12-07T14:29:27;18.38;;;10.07;;
3993;SDS011;2011;48.238;13.948;2022-12-07T14:31:59;22.37;;;10.50;;
3993;SDS011;2011;48.238;13.948;2022-12-07T14:34:53;20.33;;;10.90;;
3993;SDS011;2011;48.238;13.948;2022-12-07T14:37:27;20.60;;;11.70;;
3993;SDS011;2011;48.238;13.948;2022-12-07T14:39:55;17.50;;;10.20;;
3993;SDS011;2011;48.238;13.948;2022-12-07T14:42:23;18.73;;;9.87;;
3993;SDS011;2011;48.238;13.948;2022-12-07T14:44:54;18.80;;;10.10;;
3993;SDS011;2011;48.238;13.948;2022-12-07T14:47:22;17.77;;;10.30;;
3993;SDS011;2011;48.238;13.948;2022-12-07T14:49:49;16.93;;;9.93;;
3993;SDS011;2011;48.238;13.948;2022-12-07T14:52:17;17.20;;;10.70;;
3993;SDS011;2011;48.238;13.948;2022-12-07T14:54:46;17.02;;;10.13;;
3993;SDS011;2011;48.238;13.948;2022-12-07T14:57:13;19.63;;;10.90;;
3993;SDS011;2011;48.238;13.948;2022-12-07T14:59:40;17.10;;;9.98;;
3993;SDS011;2011;48.238;13.948;2022-12-07T15:02:09;18.00;;;10.60;;
3993;SDS011;2011;48.238;13.948;2022-12-07T15:04:39;17.20;;;10.30;;
3993;SDS011;2011;48.238;13.948;2022-12-07T15:07:09;21.00;;;11.27;;
3993;SDS011;2011;48.238;13.948;2022-12-07T15:09:40;18.23;;;11.03;;
3993;SDS011;2011;48.238;13.948;2022-12-07T15:12:07;18.97;;;9.97;;
3993;SDS011;2011;48.238;13.948;2022-12-07T15:14:34;18.07;;;10.67;;
3993;SDS011;2011;48.238;13.948;2022-12-07T15:17:01;18.13;;;11.80;;
3993;SDS011;2011;48.238;13.948;2022-12-07T15:19:29;23.23;;;12.00;;
3993;SDS011;2011;48.238;13.948;2022-12-07T15:21:57;18.93;;;11.43;;
3993;SDS011;2011;48.238;13.948;2022-12-07T15:24:24;28.13;;;12.47;;
3993;SDS011;2011;48.238;13.948;2022-12-07T15:26:53;17.63;;;10.77;;
3993;SDS011;2011;48.238;13.948;2022-12-07T15:29:20;20.93;;;10.20;;